createdAt,value
2022-12-03T00:01:45.143Z,43.42
2022-12-03T00:04:16.214Z,43.56
2022-12-03T00:06:47.731Z,43.82
2022-12-03T00:09:18.652Z,42.66
2022-12-03T00:11:50.052Z,45.22
2022-12-03T00:14:21.009Z,43.24
2022-12-03T00:16:51.897Z,45.42
2022-12-03T00:19:23.237Z,44.86
2022-12-03T00:21:54.216Z,45.46
2022-12-03T00:24:24.964Z,42.31
2022-12-03T00:26:55.728Z,43.50
2022-12-03T00:29:26.563Z,44.19
2022-12-03T00:31:57.858Z,44.45
2022-12-03T00:34:28.582Z,41.56
2022-12-03T00:36:59.785Z,45.39
2022-12-03T00:39:31.046Z,44.26
2022-12-03T00:42:02.008Z,44.10
2022-12-03T00:44:32.930Z,47.46
2022-12-03T00:47:03.953Z,46.95
2022-12-03T00:49:35.110Z,45.37
2022-12-03T00:52:06.431Z,46.76
2022-12-03T00:54:37.501Z,46.02
2022-12-03T00:57:08.696Z,45.34
2022-12-03T00:59:39.859Z,47.35
2022-12-03T01:02:11.088Z,47.73
2022-12-03T01:04:42.029Z,47.25
2022-12-03T01:07:12.858Z,46.95
2022-12-03T01:09:43.887Z,45.63
2022-12-03T01:12:14.696Z,47.25
2022-12-03T01:14:45.427Z,44.78
2022-12-03T01:17:16.517Z,47.46
2022-12-03T01:19:48.567Z,42.99
2022-12-03T01:22:19.544Z,42.81
2022-12-03T01:24:50.696Z,45.05
2022-12-03T01:27:22.089Z,40.94
2022-12-03T01:29:53.015Z,41.44
2022-12-03T01:32:23.680Z,40.89
2022-12-03T01:34:58.140Z,42.79
2022-12-03T01:37:29.685Z,39.30
2022-12-03T01:40:00.927Z,40.11
2022-12-03T01:42:39.081Z,43.09
2022-12-03T01:45:16.884Z,43.15
2022-12-03T01:48:02.207Z,43.88
2022-12-03T01:50:34.796Z,42.88
2022-12-03T01:53:06.566Z,42.94
2022-12-03T01:55:39.099Z,41.31
2022-12-03T01:58:12.346Z,39.75
2022-12-03T02:00:43.221Z,40.13
2022-12-03T02:03:28.321Z,40.50
2022-12-03T02:05:59.272Z,39.55
2022-12-03T02:08:38.396Z,37.69
2022-12-03T02:11:22.769Z,37.19
2022-12-03T02:14:18.649Z,39.35
2022-12-03T02:17:04.438Z,39.41
2022-12-03T02:19:36.024Z,39.05
2022-12-03T02:22:21.740Z,39.82
2022-12-03T02:25:16.492Z,40.66
2022-12-03T02:27:48.038Z,41.55
2022-12-03T02:30:20.398Z,42.17
2022-12-03T02:32:51.946Z,42.36
2022-12-03T02:35:28.091Z,43.04
2022-12-03T02:38:08.885Z,43.59
2022-12-03T02:40:40.507Z,44.84
2022-12-03T02:43:12.059Z,45.86
2022-12-03T02:45:46.068Z,47.18
2022-12-03T02:48:20.187Z,43.13
2022-12-03T02:51:01.604Z,43.58
2022-12-03T02:53:36.236Z,42.01
2022-12-03T02:56:07.999Z,42.52
2022-12-03T02:58:39.328Z,47.72
2022-12-03T03:01:10.857Z,51.92
2022-12-03T03:03:42.154Z,54.71
2022-12-03T03:06:13.495Z,53.79
2022-12-03T03:08:45.198Z,54.33
2022-12-03T03:11:15.905Z,55.04
2022-12-03T03:13:46.877Z,55.16
2022-12-03T03:16:19.043Z,54.39
2022-12-03T03:18:50.080Z,52.94
2022-12-03T03:21:21.746Z,52.12
2022-12-03T03:23:52.718Z,54.41
2022-12-03T03:26:23.671Z,54.52
2022-12-03T03:28:54.786Z,53.47
2022-12-03T03:31:26.606Z,56.04
2022-12-03T03:33:57.466Z,53.60
2022-12-03T03:36:28.722Z,54.37
2022-12-03T03:38:59.746Z,50.99
2022-12-03T03:41:31.703Z,49.13
2022-12-03T03:44:02.665Z,49.81
2022-12-03T03:46:34.835Z,50.34
2022-12-03T03:49:07.529Z,52.97
2022-12-03T03:51:38.555Z,54.87
2022-12-03T03:54:09.687Z,54.73
2022-12-03T03:56:40.600Z,55.93
2022-12-03T03:59:11.561Z,50.85
2022-12-03T04:01:43.111Z,51.41
2022-12-03T04:04:25.331Z,50.74
2022-12-03T04:06:56.353Z,52.46
2022-12-03T04:09:27.968Z,52.16
2022-12-03T04:12:19.251Z,52.46
2022-12-03T04:14:50.576Z,53.35
2022-12-03T04:17:22.180Z,53.94
2022-12-03T04:19:53.431Z,54.41
2022-12-03T04:22:42.486Z,54.20
2022-12-03T04:25:31.393Z,53.41
2022-12-03T04:28:21.376Z,51.21
2022-12-03T04:30:52.507Z,52.00
2022-12-03T04:33:41.361Z,50.17
2022-12-03T04:36:12.616Z,51.50
2022-12-03T04:38:43.179Z,52.60
2022-12-03T04:41:14.277Z,51.75
2022-12-03T04:44:03.319Z,50.44
2022-12-03T04:46:34.036Z,51.06
2022-12-03T04:49:04.806Z,50.52
2022-12-03T04:51:35.967Z,51.51
2022-12-03T04:54:07.767Z,51.01
2022-12-03T04:56:38.976Z,50.61
2022-12-03T04:59:15.597Z,51.02
2022-12-03T05:01:47.366Z,52.18
2022-12-03T05:04:18.635Z,51.74
2022-12-03T05:06:49.799Z,53.38
2022-12-03T05:09:21.136Z,52.21
2022-12-03T05:11:52.410Z,52.60
2022-12-03T05:14:24.279Z,52.68
2022-12-03T05:16:55.227Z,52.28
2022-12-03T05:19:46.389Z,53.00
2022-12-03T05:22:17.311Z,52.59
2022-12-03T05:24:48.506Z,51.72
2022-12-03T05:27:23.742Z,51.02
2022-12-03T05:29:55.626Z,50.14
2022-12-03T05:32:26.740Z,49.16
2022-12-03T05:34:57.704Z,49.06
2022-12-03T05:37:28.670Z,50.17
2022-12-03T05:39:59.933Z,49.46
2022-12-03T05:42:48.760Z,48.90
2022-12-03T05:45:20.784Z,48.92
2022-12-03T05:47:51.812Z,49.60
2022-12-03T05:50:24.585Z,50.08
2022-12-03T05:52:58.252Z,50.44
2022-12-03T05:55:29.732Z,50.26
2022-12-03T05:58:01.160Z,50.81
2022-12-03T06:00:42.760Z,51.90
2022-12-03T06:03:14.260Z,50.75
2022-12-03T06:05:45.611Z,52.12
2022-12-03T06:08:16.343Z,51.25
2022-12-03T06:10:47.289Z,52.31
2022-12-03T06:13:18.300Z,53.37
2022-12-03T06:15:49.269Z,53.96
2022-12-03T06:18:20.160Z,52.55
2022-12-03T06:20:51.411Z,53.48
2022-12-03T06:23:22.359Z,53.60
2022-12-03T06:25:53.160Z,54.05
2022-12-03T06:28:24.356Z,54.87
2022-12-03T06:30:55.141Z,54.65
2022-12-03T06:33:26.388Z,55.89
2022-12-03T06:35:57.317Z,55.35
2022-12-03T06:38:28.243Z,55.01
2022-12-03T06:40:59.224Z,55.90
2022-12-03T06:43:30.164Z,55.98
2022-12-03T06:46:01.159Z,57.21
2022-12-03T06:48:32.647Z,56.92
2022-12-03T06:51:03.682Z,58.21
2022-12-03T06:53:34.586Z,58.18
2022-12-03T06:59:59.564Z,60.83
2022-12-03T07:02:30.554Z,61.15
2022-12-03T07:05:01.628Z,62.88
2022-12-03T07:07:34.875Z,64.40
2022-12-03T07:10:06.546Z,64.41
2022-12-03T07:12:37.736Z,65.96
2022-12-03T07:15:09.015Z,66.26
2022-12-03T07:17:40.402Z,67.88
2022-12-03T07:20:11.491Z,68.88
2022-12-03T07:22:43.086Z,70.76
2022-12-03T07:25:21.209Z,70.79
2022-12-03T07:27:53.990Z,72.66
2022-12-03T07:30:25.734Z,74.14
2022-12-03T07:32:56.160Z,77.23
2022-12-03T07:35:26.991Z,78.28
2022-12-03T07:37:57.973Z,79.72
2022-12-03T07:40:29.085Z,80.54
2022-12-03T07:43:00.040Z,83.05
2022-12-03T07:45:30.935Z,83.99
2022-12-03T07:48:01.857Z,85.49
2022-12-03T07:50:32.797Z,87.10
2022-12-03T07:53:04.097Z,87.10
2022-12-03T07:55:35.095Z,89.35
2022-12-03T07:58:05.820Z,90.06
2022-12-03T08:00:36.753Z,91.27
2022-12-03T08:03:07.658Z,90.66
2022-12-03T08:05:38.597Z,92.76
2022-12-03T08:08:09.665Z,94.03
2022-12-03T08:10:40.691Z,95.40
2022-12-03T08:13:19.860Z,95.08
2022-12-03T08:19:11.954Z,93.30
2022-12-03T08:21:43.108Z,91.87
2022-12-03T08:24:23.853Z,91.68
2022-12-03T08:26:54.798Z,90.11
2022-12-03T08:29:26.855Z,89.16
2022-12-03T08:31:58.500Z,89.91
2022-12-03T08:34:31.272Z,91.36
2022-12-03T08:37:25.027Z,92.16
2022-12-03T08:39:57.357Z,92.28
2022-12-03T08:42:44.380Z,94.62
2022-12-03T08:45:41.123Z,95.35
2022-12-03T08:48:21.093Z,94.87
2022-12-03T08:50:52.850Z,93.86
2022-12-03T08:53:50.806Z,94.70
2022-12-03T08:56:28.965Z,97.54
2022-12-03T08:59:03.146Z,100.00
2022-12-03T09:01:44.647Z,100.00
2022-12-03T09:04:33.837Z,100.00
2022-12-03T09:07:06.667Z,100.00
2022-12-03T09:09:37.608Z,100.00
2022-12-03T09:12:10.176Z,100.00
2022-12-03T09:14:41.075Z,100.00
2022-12-03T09:17:11.915Z,100.00
2022-12-03T09:19:46.575Z,100.00
2022-12-03T09:22:18.840Z,100.00
2022-12-03T09:24:50.148Z,100.00
2022-12-03T09:27:22.266Z,100.00
2022-12-03T09:29:53.694Z,100.00
2022-12-03T09:32:24.471Z,100.00
2022-12-03T09:34:56.221Z,100.00
2022-12-03T09:37:26.645Z,100.00
2022-12-03T09:39:58.167Z,100.00
2022-12-03T09:42:29.264Z,100.00
2022-12-03T09:45:17.517Z,100.00
2022-12-03T09:47:51.952Z,100.00
2022-12-03T09:50:27.847Z,100.00
2022-12-03T09:53:03.601Z,100.00
2022-12-03T09:55:34.521Z,100.00
2022-12-03T09:58:10.785Z,100.00
2022-12-03T10:00:42.859Z,100.00
2022-12-03T10:03:16.445Z,100.00
2022-12-03T10:05:48.364Z,100.00
2022-12-03T10:08:26.091Z,100.00
2022-12-03T10:11:01.342Z,100.00
2022-12-03T10:13:33.424Z,100.00
2022-12-03T10:16:04.259Z,100.00
2022-12-03T10:18:41.477Z,100.00
2022-12-03T10:21:27.508Z,100.00
2022-12-03T10:24:22.004Z,100.00
2022-12-03T10:26:56.083Z,100.00
2022-12-03T10:29:33.627Z,100.00
2022-12-03T10:32:11.431Z,100.00
2022-12-03T10:34:43.961Z,100.00
2022-12-03T10:37:20.620Z,100.00
2022-12-03T10:40:13.011Z,100.00
2022-12-03T10:42:44.193Z,100.00
2022-12-03T10:45:23.845Z,100.00
2022-12-03T10:48:14.452Z,100.00
2022-12-03T10:50:54.319Z,100.00
2022-12-03T10:53:28.922Z,100.00
2022-12-03T10:56:01.631Z,100.00
2022-12-03T10:58:40.530Z,100.00
2022-12-03T11:01:23.493Z,100.00
2022-12-03T11:03:54.816Z,100.00
2022-12-03T11:06:26.077Z,100.00
2022-12-03T11:09:01.527Z,100.00
2022-12-03T11:11:36.073Z,100.00
2022-12-03T11:14:07.100Z,100.00
2022-12-03T11:16:43.883Z,100.00
2022-12-03T11:19:40.311Z,100.00
2022-12-03T11:22:11.569Z,100.00
2022-12-03T11:24:42.787Z,100.00
2022-12-03T11:27:13.583Z,100.00
2022-12-03T11:29:50.426Z,100.00
2022-12-03T11:33:00.853Z,100.00
2022-12-03T11:36:36.492Z,100.00
2022-12-03T11:39:12.178Z,100.00
2022-12-03T11:42:28.912Z,100.00
2022-12-03T11:45:07.273Z,100.00
2022-12-03T11:47:50.442Z,100.00
2022-12-03T11:50:33.570Z,100.00
2022-12-03T11:53:16.067Z,100.00
2022-12-03T11:55:50.359Z,100.00
2022-12-03T11:58:30.235Z,100.00
2022-12-03T12:01:03.524Z,100.00
2022-12-03T12:03:35.402Z,100.00
2022-12-03T12:06:17.302Z,100.00
2022-12-03T12:08:53.938Z,100.00
2022-12-03T12:11:43.206Z,100.00
2022-12-03T12:14:15.298Z,100.00
2022-12-03T12:16:52.296Z,100.00
2022-12-03T12:19:43.976Z,100.00
2022-12-03T12:22:19.204Z,100.00
2022-12-03T12:24:54.797Z,100.00
2022-12-03T12:27:46.494Z,100.00
2022-12-03T12:30:20.694Z,100.00
2022-12-03T12:32:54.355Z,100.00
2022-12-03T12:35:27.311Z,100.00
2022-12-03T12:38:12.422Z,100.00
2022-12-03T12:41:08.668Z,100.00
2022-12-03T12:43:48.519Z,100.00
2022-12-03T12:46:46.767Z,100.00
2022-12-03T12:49:17.557Z,100.00
2022-12-03T12:51:49.658Z,100.00
2022-12-03T12:54:20.859Z,100.00
2022-12-03T12:56:52.129Z,100.00
2022-12-03T12:59:25.777Z,100.00
2022-12-03T13:01:56.900Z,100.00
2022-12-03T13:04:29.992Z,100.00
2022-12-03T13:07:02.102Z,100.00
2022-12-03T13:09:33.245Z,100.00
2022-12-03T13:12:08.869Z,100.00
2022-12-03T13:14:39.894Z,100.00
2022-12-03T13:17:16.587Z,100.00
2022-12-03T13:19:52.784Z,100.00
2022-12-03T13:22:32.367Z,100.00
2022-12-03T13:25:58.128Z,100.00
2022-12-03T13:28:28.018Z,100.00
2022-12-03T13:31:04.133Z,100.00
2022-12-03T13:33:35.728Z,100.00
2022-12-03T13:36:07.823Z,100.00
2022-12-03T13:38:38.667Z,100.00
2022-12-03T13:41:35.424Z,100.00
2022-12-03T13:44:18.185Z,100.00
2022-12-03T13:46:49.531Z,100.00
2022-12-03T13:49:25.134Z,100.00
2022-12-03T13:51:55.842Z,100.00
2022-12-03T13:54:29.604Z,100.00
2022-12-03T13:57:01.691Z,100.00
2022-12-03T13:59:32.596Z,100.00
2022-12-03T14:02:03.597Z,100.00
2022-12-03T14:04:34.581Z,100.00
2022-12-03T14:07:05.281Z,100.00
2022-12-03T14:09:36.099Z,100.00
2022-12-03T14:12:25.274Z,100.00
2022-12-03T14:15:08.624Z,100.00
2022-12-03T14:17:41.899Z,100.00
2022-12-03T14:20:16.004Z,100.00
2022-12-03T14:22:49.402Z,100.00
2022-12-03T14:25:31.373Z,100.00
2022-12-03T14:28:16.661Z,100.00
2022-12-03T14:30:56.985Z,100.00
2022-12-03T14:33:33.726Z,100.00
2022-12-03T14:36:04.789Z,100.00
2022-12-03T14:38:36.166Z,100.00
2022-12-03T14:41:36.002Z,100.00
2022-12-03T14:44:06.975Z,100.00
2022-12-03T14:46:37.697Z,100.00
2022-12-03T14:49:18.147Z,100.00
2022-12-03T14:51:52.406Z,100.00
2022-12-03T14:54:31.812Z,100.00
2022-12-03T14:57:05.283Z,100.00
2022-12-03T14:59:36.253Z,100.00
2022-12-03T15:02:09.972Z,100.00
2022-12-03T15:04:41.847Z,100.00
2022-12-03T15:07:12.321Z,100.00
2022-12-03T15:09:43.255Z,100.00
2022-12-03T15:12:14.250Z,100.00
2022-12-03T15:14:56.659Z,100.00
2022-12-03T15:17:40.268Z,100.00
2022-12-03T15:20:11.711Z,100.00
2022-12-03T15:22:42.928Z,100.00
2022-12-03T15:25:14.282Z,100.00
2022-12-03T15:27:48.404Z,100.00
2022-12-03T15:30:22.215Z,100.00
2022-12-03T15:35:45.719Z,100.00
2022-12-03T15:38:17.838Z,100.00
2022-12-03T15:40:49.199Z,100.00
2022-12-03T15:43:20.207Z,100.00
2022-12-03T15:45:51.105Z,100.00
2022-12-03T15:48:21.983Z,100.00
2022-12-03T15:50:52.671Z,100.00
2022-12-03T15:53:23.360Z,100.00
2022-12-03T15:55:54.218Z,100.00
2022-12-03T15:58:24.912Z,100.00
2022-12-03T16:00:55.613Z,100.00
2022-12-03T16:03:43.622Z,100.00
2022-12-03T16:06:44.438Z,100.00
2022-12-03T16:09:41.869Z,100.00
2022-12-03T16:12:15.105Z,100.00
2022-12-03T16:14:46.005Z,100.00
2022-12-03T16:17:22.035Z,100.00
2022-12-03T16:20:17.840Z,100.00
2022-12-03T16:23:36.740Z,100.00
2022-12-03T16:26:11.460Z,100.00
2022-12-03T16:28:44.588Z,100.00
2022-12-03T16:31:20.459Z,100.00
2022-12-03T16:33:54.128Z,100.00
2022-12-03T16:36:37.857Z,100.00
2022-12-03T16:39:37.380Z,100.00
2022-12-03T16:42:17.246Z,100.00
2022-12-03T16:45:13.515Z,100.00
2022-12-03T16:48:01.502Z,100.00
2022-12-03T16:50:32.537Z,100.00
2022-12-03T16:53:03.490Z,100.00
2022-12-03T16:55:34.379Z,100.00
2022-12-03T16:58:05.031Z,100.00
2022-12-03T17:00:36.147Z,100.00
2022-12-03T17:03:06.936Z,100.00
2022-12-03T17:05:38.144Z,100.00
2022-12-03T17:08:09.127Z,100.00
2022-12-03T17:10:40.474Z,100.00
2022-12-03T17:13:11.695Z,100.00
2022-12-03T17:15:42.873Z,100.00
2022-12-03T17:18:14.132Z,100.00
2022-12-03T17:20:45.067Z,100.00
2022-12-03T17:23:15.929Z,100.00
2022-12-03T17:25:47.158Z,100.00
2022-12-03T17:28:19.436Z,100.00
2022-12-03T17:30:50.156Z,100.00
2022-12-03T17:33:21.055Z,100.00
2022-12-03T17:35:52.367Z,100.00
2022-12-03T17:38:23.255Z,100.00
2022-12-03T17:40:54.096Z,100.00
2022-12-03T17:43:25.030Z,100.00
2022-12-03T17:45:57.452Z,100.00
2022-12-03T17:48:32.672Z,100.00
2022-12-03T17:51:03.785Z,100.00
2022-12-03T17:53:34.651Z,100.00
2022-12-03T17:56:05.483Z,100.00
2022-12-03T17:58:36.252Z,100.00
2022-12-03T18:01:10.006Z,100.00
2022-12-03T18:03:40.786Z,100.00
2022-12-03T18:06:11.696Z,100.00
2022-12-03T18:08:42.504Z,100.00
2022-12-03T18:11:13.521Z,100.00
2022-12-03T18:13:44.337Z,100.00
2022-12-03T18:16:16.156Z,100.00
2022-12-03T18:18:47.674Z,100.00
2022-12-03T18:21:20.032Z,100.00
2022-12-03T18:23:50.828Z,100.00
2022-12-03T18:26:21.717Z,100.00
2022-12-03T18:28:52.552Z,100.00
2022-12-03T18:31:24.828Z,100.00
2022-12-03T18:33:55.803Z,100.00
2022-12-03T18:36:31.439Z,100.00
2022-12-03T18:39:02.901Z,100.00
2022-12-03T18:41:35.582Z,100.00
2022-12-03T18:44:11.659Z,100.00
2022-12-03T18:46:53.398Z,100.00
2022-12-03T18:49:25.066Z,100.00
2022-12-03T18:51:59.290Z,100.00
2022-12-03T18:54:30.584Z,100.00
2022-12-03T18:57:01.571Z,100.00
2022-12-03T18:59:32.490Z,100.00
2022-12-03T19:02:03.494Z,100.00
2022-12-03T19:04:34.427Z,100.00
2022-12-03T19:07:05.215Z,100.00
2022-12-03T19:09:36.239Z,100.00
2022-12-03T19:12:12.846Z,100.00
2022-12-03T19:14:45.634Z,100.00
2022-12-03T19:17:16.556Z,100.00
2022-12-03T19:19:47.981Z,100.00
2022-12-03T19:22:18.661Z,100.00
2022-12-03T19:24:49.748Z,100.00
2022-12-03T19:27:21.126Z,100.00
2022-12-03T19:29:52.702Z,100.00
2022-12-03T19:32:23.781Z,100.00
2022-12-03T19:34:55.266Z,96.49
2022-12-03T19:37:26.709Z,94.41
2022-12-03T19:39:57.825Z,87.42
2022-12-03T19:42:29.057Z,87.95
2022-12-03T19:44:59.830Z,87.45
2022-12-03T19:47:30.580Z,93.30
2022-12-03T19:50:01.652Z,84.67
2022-12-03T19:52:33.439Z,90.37
2022-12-03T19:55:04.231Z,87.60
2022-12-03T19:57:37.316Z,89.42
2022-12-03T20:00:09.070Z,88.18
2022-12-03T20:02:42.626Z,86.44
2022-12-03T20:05:13.818Z,87.14
2022-12-03T20:07:44.847Z,81.58
2022-12-03T20:10:21.103Z,77.21
2022-12-03T20:12:51.758Z,73.26
2022-12-03T20:15:22.539Z,75.07
2022-12-03T20:17:53.435Z,73.29
2022-12-03T20:20:24.621Z,69.71
2022-12-03T20:22:55.547Z,73.23
2022-12-03T20:25:26.479Z,75.17
2022-12-03T20:27:57.213Z,67.26
2022-12-03T20:30:28.313Z,69.45
2022-12-03T20:32:59.067Z,68.75
2022-12-03T20:35:31.591Z,65.25
2022-12-03T20:38:02.819Z,71.09
2022-12-03T20:40:37.170Z,73.17
2022-12-03T20:43:08.095Z,66.09
2022-12-03T20:45:39.026Z,61.13
2022-12-03T20:48:10.173Z,61.36
2022-12-03T20:50:41.469Z,60.78
2022-12-03T20:53:25.788Z,57.95
2022-12-03T20:56:01.579Z,62.97
2022-12-03T20:58:33.316Z,57.44
2022-12-03T21:01:16.173Z,55.72
2022-12-03T21:03:48.249Z,55.91
2022-12-03T21:06:19.905Z,54.94
2022-12-03T21:08:50.464Z,60.97
2022-12-03T21:11:25.431Z,57.19
2022-12-03T21:13:56.733Z,52.62
2022-12-03T21:16:59.389Z,51.46
2022-12-03T21:19:22.301Z,51.58
2022-12-03T21:21:53.161Z,51.10
2022-12-03T21:24:23.903Z,54.39
2022-12-03T21:26:54.912Z,59.77
2022-12-03T21:29:26.363Z,51.59
2022-12-03T21:31:57.193Z,56.25
2022-12-03T21:34:34.219Z,56.60
2022-12-03T21:37:07.083Z,53.96
2022-12-03T21:39:38.978Z,49.41
2022-12-03T21:42:19.409Z,48.77
2022-12-03T21:45:00.921Z,47.45
2022-12-03T21:47:37.163Z,49.23
2022-12-03T21:50:09.986Z,46.59
2022-12-03T21:52:40.997Z,47.67
2022-12-03T21:55:12.351Z,48.42
2022-12-03T21:57:43.104Z,46.86
2022-12-03T22:00:14.963Z,44.30
2022-12-03T22:02:45.908Z,47.29
2022-12-03T22:05:16.814Z,44.91
2022-12-03T22:07:47.735Z,44.73
2022-12-03T22:10:18.798Z,45.48
2022-12-03T22:12:49.728Z,47.06
2022-12-03T22:15:20.776Z,46.68
2022-12-03T22:17:51.754Z,43.94
2022-12-03T22:20:22.769Z,47.85
2022-12-03T22:22:53.739Z,44.80
2022-12-03T22:25:24.700Z,40.90
2022-12-03T22:27:55.777Z,41.74
2022-12-03T22:30:27.123Z,42.01
2022-12-03T22:32:57.942Z,44.71
2022-12-03T22:35:28.901Z,43.58
2022-12-03T22:37:59.868Z,44.70
2022-12-03T22:40:30.714Z,45.84
2022-12-03T22:43:01.400Z,46.95
2022-12-03T22:45:32.148Z,44.86
2022-12-03T22:48:03.106Z,44.82
2022-12-03T22:50:34.089Z,42.34
2022-12-03T22:53:05.181Z,43.20
2022-12-03T22:55:35.945Z,43.21
2022-12-03T22:58:07.547Z,44.73
2022-12-03T23:00:38.769Z,46.18
2022-12-03T23:03:10.355Z,45.20
2022-12-03T23:05:41.794Z,48.11
2022-12-03T23:08:19.319Z,46.22
2022-12-03T23:10:52.762Z,47.08
2022-12-03T23:13:23.806Z,44.58
2022-12-03T23:15:54.851Z,47.24
2022-12-03T23:18:26.389Z,47.85
2022-12-03T23:20:58.869Z,47.34
2022-12-03T23:23:30.303Z,46.45
2022-12-03T23:26:09.273Z,46.53
2022-12-03T23:28:42.537Z,47.08
2022-12-03T23:31:28.501Z,45.12
2022-12-03T23:34:00.650Z,45.50
2022-12-03T23:36:33.756Z,45.30
2022-12-03T23:39:04.964Z,45.81
2022-12-03T23:41:37.550Z,45.70
2022-12-03T23:44:08.681Z,44.15
2022-12-03T23:46:41.951Z,45.90
2022-12-03T23:49:12.815Z,47.09
2022-12-03T23:51:43.728Z,46.86
2022-12-03T23:54:14.517Z,48.26
2022-12-03T23:56:45.450Z,50.00
2022-12-03T23:59:16.201Z,47.37
